sensor_id;sensor_type;location;lat;lon;timestamp;temperature;humidity
13711;DHT22;6927;51.256;9.410;2023-03-01T00:01:56;-0.50;99.90
13711;DHT22;6927;51.256;9.410;2023-03-01T00:04:22;-0.50;99.90
13711;DHT22;6927;51.256;9.410;2023-03-01T00:06:48;-0.50;99.90
13711;DHT22;6927;51.256;9.410;2023-03-01T00:09:23;-0.60;99.90
13711;DHT22;6927;51.256;9.410;2023-03-01T00:11:54;-0.60;99.90
13711;DHT22;6927;51.256;9.410;2023-03-01T00:17:03;-0.60;99.90
13711;DHT22;6927;51.256;9.410;2023-03-01T00:19:34;-0.70;99.90
13711;DHT22;6927;51.256;9.410;2023-03-01T00:22:05;-0.70;99.90
13711;DHT22;6927;51.256;9.410;2023-03-01T00:24:36;-0.70;99.90
13711;DHT22;6927;51.256;9.410;2023-03-01T00:27:10;-0.70;99.90
13711;DHT22;6927;51.256;9.410;2023-03-01T00:29:42;-0.70;99.90
13711;DHT22;6927;51.256;9.410;2023-03-01T00:32:07;-0.70;99.90
13711;DHT22;6927;51.256;9.410;2023-03-01T00:34:36;-0.70;99.90
13711;DHT22;6927;51.256;9.410;2023-03-01T00:37:09;-0.70;99.90
13711;DHT22;6927;51.256;9.410;2023-03-01T00:39:43;-0.70;99.90
13711;DHT22;6927;51.256;9.410;2023-03-01T00:42:09;-0.70;99.90
13711;DHT22;6927;51.256;9.410;2023-03-01T00:44:37;-0.80;99.90
13711;DHT22;6927;51.256;9.410;2023-03-01T00:47:18;-0.80;99.90
13711;DHT22;6927;51.256;9.410;2023-03-01T00:49:44;-0.80;99.90
13711;DHT22;6927;51.256;9.410;2023-03-01T00:52:09;-0.90;99.90
13711;DHT22;6927;51.256;9.410;2023-03-01T00:54:37;-0.90;99.90
13711;DHT22;6927;51.256;9.410;2023-03-01T00:57:09;-0.80;99.90
13711;DHT22;6927;51.256;9.410;2023-03-01T00:59:46;-0.90;99.90
13711;DHT22;6927;51.256;9.410;2023-03-01T01:05:53;-0.90;99.90
13711;DHT22;6927;51.256;9.410;2023-03-01T01:08:20;-1.00;99.90
13711;DHT22;6927;51.256;9.410;2023-03-01T01:10:46;-1.00;99.90
13711;DHT22;6927;51.256;9.410;2023-03-01T01:13:14;-1.00;99.90
13711;DHT22;6927;51.256;9.410;2023-03-01T01:15:45;-0.90;99.90
13711;DHT22;6927;51.256;9.410;2023-03-01T01:18:14;-0.90;99.90
13711;DHT22;6927;51.256;9.410;2023-03-01T01:21:07;-0.90;99.90
13711;DHT22;6927;51.256;9.410;2023-03-01T01:23:33;-0.90;99.90
13711;DHT22;6927;51.256;9.410;2023-03-01T01:26:27;-0.90;99.90
13711;DHT22;6927;51.256;9.410;2023-03-01T01:28:53;-1.00;99.90
13711;DHT22;6927;51.256;9.410;2023-03-01T01:31:23;-1.00;99.90
13711;DHT22;6927;51.256;9.410;2023-03-01T01:33:52;-1.10;99.90
13711;DHT22;6927;51.256;9.410;2023-03-01T01:36:27;-1.00;99.90
13711;DHT22;6927;51.256;9.410;2023-03-01T01:38:53;-1.10;99.90
13711;DHT22;6927;51.256;9.410;2023-03-01T01:41:37;-1.20;99.90
13711;DHT22;6927;51.256;9.410;2023-03-01T01:44:28;-1.20;99.90
13711;DHT22;6927;51.256;9.410;2023-03-01T01:47:02;-1.30;99.90
13711;DHT22;6927;51.256;9.410;2023-03-01T01:49:54;-1.40;99.90
13711;DHT22;6927;51.256;9.410;2023-03-01T01:52:33;-1.30;99.90
13711;DHT22;6927;51.256;9.410;2023-03-01T01:55:04;-1.30;99.90
13711;DHT22;6927;51.256;9.410;2023-03-01T01:57:47;-1.40;99.90
13711;DHT22;6927;51.256;9.410;2023-03-01T02:00:20;-1.30;99.90
13711;DHT22;6927;51.256;9.410;2023-03-01T02:03:10;-1.40;99.90
13711;DHT22;6927;51.256;9.410;2023-03-01T02:08:49;-1.40;99.90
13711;DHT22;6927;51.256;9.410;2023-03-01T02:14:24;-1.30;99.90
13711;DHT22;6927;51.256;9.410;2023-03-01T02:17:24;-1.30;99.90
13711;DHT22;6927;51.256;9.410;2023-03-01T02:23:08;-1.30;99.90
13711;DHT22;6927;51.256;9.410;2023-03-01T02:29:16;-1.30;99.90
13711;DHT22;6927;51.256;9.410;2023-03-01T02:31:45;-1.30;99.90
13711;DHT22;6927;51.256;9.410;2023-03-01T02:34:36;-1.30;99.90
13711;DHT22;6927;51.256;9.410;2023-03-01T02:37:28;-1.30;99.90
13711;DHT22;6927;51.256;9.410;2023-03-01T02:40:24;-1.30;99.90
13711;DHT22;6927;51.256;9.410;2023-03-01T02:42:55;-1.20;99.90
13711;DHT22;6927;51.256;9.410;2023-03-01T02:45:33;-1.20;99.90
13711;DHT22;6927;51.256;9.410;2023-03-01T02:48:06;-1.30;99.90
13711;DHT22;6927;51.256;9.410;2023-03-01T02:51:02;-1.30;99.90
13711;DHT22;6927;51.256;9.410;2023-03-01T02:56:40;-1.20;99.90
13711;DHT22;6927;51.256;9.410;2023-03-01T02:59:12;-1.30;99.90
13711;DHT22;6927;51.256;9.410;2023-03-01T03:01:53;-1.30;99.90
13711;DHT22;6927;51.256;9.410;2023-03-01T03:04:21;-1.30;99.90
13711;DHT22;6927;51.256;9.410;2023-03-01T03:07:04;-1.40;99.90
13711;DHT22;6927;51.256;9.410;2023-03-01T03:09:49;-1.40;99.90
13711;DHT22;6927;51.256;9.410;2023-03-01T03:12:54;-1.40;99.90
13711;DHT22;6927;51.256;9.410;2023-03-01T03:15:38;-1.40;99.90
13711;DHT22;6927;51.256;9.410;2023-03-01T03:18:11;-1.40;99.90
13711;DHT22;6927;51.256;9.410;2023-03-01T03:20:40;-1.30;99.90
13711;DHT22;6927;51.256;9.410;2023-03-01T03:23:09;-1.30;99.90
13711;DHT22;6927;51.256;9.410;2023-03-01T03:25:51;-1.30;99.90
13711;DHT22;6927;51.256;9.410;2023-03-01T03:28:25;-1.30;99.90
13711;DHT22;6927;51.256;9.410;2023-03-01T03:30:53;-1.40;99.90
13711;DHT22;6927;51.256;9.410;2023-03-01T03:33:37;-1.40;99.90
13711;DHT22;6927;51.256;9.410;2023-03-01T03:36:20;-1.50;99.90
13711;DHT22;6927;51.256;9.410;2023-03-01T03:38:54;-1.50;99.90
13711;DHT22;6927;51.256;9.410;2023-03-01T03:41:34;-1.40;99.90
13711;DHT22;6927;51.256;9.410;2023-03-01T03:44:02;-1.50;99.90
13711;DHT22;6927;51.256;9.410;2023-03-01T03:46:54;-1.50;99.90
13711;DHT22;6927;51.256;9.410;2023-03-01T03:49:29;-1.50;99.90
13711;DHT22;6927;51.256;9.410;2023-03-01T03:51:58;-1.50;99.90
13711;DHT22;6927;51.256;9.410;2023-03-01T03:54:39;-1.50;99.90
13711;DHT22;6927;51.256;9.410;2023-03-01T03:57:40;-1.60;99.90
13711;DHT22;6927;51.256;9.410;2023-03-01T04:00:14;-1.60;99.90
13711;DHT22;6927;51.256;9.410;2023-03-01T04:05:56;-1.70;99.90
13711;DHT22;6927;51.256;9.410;2023-03-01T04:08:32;-1.70;99.90
13711;DHT22;6927;51.256;9.410;2023-03-01T04:11:02;-1.70;99.90
13711;DHT22;6927;51.256;9.410;2023-03-01T04:13:49;-1.70;99.90
13711;DHT22;6927;51.256;9.410;2023-03-01T04:16:14;-1.80;99.90
13711;DHT22;6927;51.256;9.410;2023-03-01T04:18:40;-1.80;99.90
13711;DHT22;6927;51.256;9.410;2023-03-01T04:21:06;-1.80;99.90
13711;DHT22;6927;51.256;9.410;2023-03-01T04:23:31;-1.80;99.90
13711;DHT22;6927;51.256;9.410;2023-03-01T04:25:58;-1.80;99.90
13711;DHT22;6927;51.256;9.410;2023-03-01T04:28:26;-1.80;99.90
13711;DHT22;6927;51.256;9.410;2023-03-01T04:30:54;-1.80;99.90
13711;DHT22;6927;51.256;9.410;2023-03-01T04:33:20;-1.80;99.90
13711;DHT22;6927;51.256;9.410;2023-03-01T04:35:46;-1.80;99.90
13711;DHT22;6927;51.256;9.410;2023-03-01T04:38:15;-1.90;99.90
13711;DHT22;6927;51.256;9.410;2023-03-01T04:40:40;-1.90;99.90
13711;DHT22;6927;51.256;9.410;2023-03-01T04:43:09;-1.90;99.90
13711;DHT22;6927;51.256;9.410;2023-03-01T04:45:36;-1.90;99.90
13711;DHT22;6927;51.256;9.410;2023-03-01T04:48:02;-1.90;99.90
13711;DHT22;6927;51.256;9.410;2023-03-01T04:50:29;-1.90;99.90
13711;DHT22;6927;51.256;9.410;2023-03-01T04:52:55;-1.80;99.90
13711;DHT22;6927;51.256;9.410;2023-03-01T04:55:24;-1.90;99.90
13711;DHT22;6927;51.256;9.410;2023-03-01T04:57:51;-1.90;99.90
13711;DHT22;6927;51.256;9.410;2023-03-01T05:00:17;-1.80;99.90
13711;DHT22;6927;51.256;9.410;2023-03-01T05:02:57;-1.90;99.90
13711;DHT22;6927;51.256;9.410;2023-03-01T05:05:37;-2.00;99.90
13711;DHT22;6927;51.256;9.410;2023-03-01T05:08:06;-2.00;99.90
13711;DHT22;6927;51.256;9.410;2023-03-01T05:10:34;-2.10;99.90
13711;DHT22;6927;51.256;9.410;2023-03-01T05:13:01;-2.10;99.90
13711;DHT22;6927;51.256;9.410;2023-03-01T05:15:30;-2.00;99.90
13711;DHT22;6927;51.256;9.410;2023-03-01T05:17:58;-2.20;99.90
13711;DHT22;6927;51.256;9.410;2023-03-01T05:20:25;-2.20;99.90
13711;DHT22;6927;51.256;9.410;2023-03-01T05:22:52;-2.30;99.90
13711;DHT22;6927;51.256;9.410;2023-03-01T05:25:20;-2.30;1.00
13711;DHT22;6927;51.256;9.410;2023-03-01T05:27:46;-2.30;85.50
13711;DHT22;6927;51.256;9.410;2023-03-01T05:30:12;-2.40;1.00
13711;DHT22;6927;51.256;9.410;2023-03-01T05:32:49;-2.50;1.00
13711;DHT22;6927;51.256;9.410;2023-03-01T05:35:16;-2.60;1.00
13711;DHT22;6927;51.256;9.410;2023-03-01T05:37:59;-2.70;1.00
13711;DHT22;6927;51.256;9.410;2023-03-01T05:44:10;-2.90;84.20
13711;DHT22;6927;51.256;9.410;2023-03-01T05:46:37;-2.80;99.90
13711;DHT22;6927;51.256;9.410;2023-03-01T05:49:03;-2.70;99.90
13711;DHT22;6927;51.256;9.410;2023-03-01T05:51:29;-2.60;99.90
13711;DHT22;6927;51.256;9.410;2023-03-01T05:53:55;-2.70;99.90
13711;DHT22;6927;51.256;9.410;2023-03-01T05:56:21;-2.70;1.00
13711;DHT22;6927;51.256;9.410;2023-03-01T05:58:48;-2.70;99.90
13711;DHT22;6927;51.256;9.410;2023-03-01T06:01:14;-2.80;99.90
13711;DHT22;6927;51.256;9.410;2023-03-01T06:03:40;-2.90;9.50
13711;DHT22;6927;51.256;9.410;2023-03-01T06:06:06;-2.90;1.00
13711;DHT22;6927;51.256;9.410;2023-03-01T06:08:31;-2.90;99.90
13711;DHT22;6927;51.256;9.410;2023-03-01T06:10:57;-3.00;1.00
13711;DHT22;6927;51.256;9.410;2023-03-01T06:13:23;-3.10;26.00
13711;DHT22;6927;51.256;9.410;2023-03-01T06:15:49;-3.10;99.90
13711;DHT22;6927;51.256;9.410;2023-03-01T06:18:15;-3.10;35.60
13711;DHT22;6927;51.256;9.410;2023-03-01T06:20:40;-3.20;99.90
13711;DHT22;6927;51.256;9.410;2023-03-01T06:23:06;-3.10;99.90
13711;DHT22;6927;51.256;9.410;2023-03-01T06:25:32;-3.00;1.00
13711;DHT22;6927;51.256;9.410;2023-03-01T06:27:57;-2.60;99.90
13711;DHT22;6927;51.256;9.410;2023-03-01T06:30:24;-2.20;1.00
13711;DHT22;6927;51.256;9.410;2023-03-01T06:32:50;-1.90;1.00
13711;DHT22;6927;51.256;9.410;2023-03-01T06:35:17;-1.50;99.90
13711;DHT22;6927;51.256;9.410;2023-03-01T06:37:43;-1.20;1.00
13711;DHT22;6927;51.256;9.410;2023-03-01T06:40:10;-0.80;95.20
13711;DHT22;6927;51.256;9.410;2023-03-01T06:42:38;-0.70;65.60
13711;DHT22;6927;51.256;9.410;2023-03-01T06:45:05;-0.60;99.90
13711;DHT22;6927;51.256;9.410;2023-03-01T06:47:31;-0.60;99.90
13711;DHT22;6927;51.256;9.410;2023-03-01T06:49:58;-0.60;43.60
13711;DHT22;6927;51.256;9.410;2023-03-01T06:52:25;-0.50;1.00
13711;DHT22;6927;51.256;9.410;2023-03-01T06:54:50;-0.60;1.00
13711;DHT22;6927;51.256;9.410;2023-03-01T06:57:16;-0.60;99.90
13711;DHT22;6927;51.256;9.410;2023-03-01T06:59:42;-0.60;99.90
13711;DHT22;6927;51.256;9.410;2023-03-01T07:02:11;-0.50;1.00
13711;DHT22;6927;51.256;9.410;2023-03-01T07:04:38;-0.20;1.00
13711;DHT22;6927;51.256;9.410;2023-03-01T07:07:04;0.00;99.90
13711;DHT22;6927;51.256;9.410;2023-03-01T07:09:29;0.10;1.00
13711;DHT22;6927;51.256;9.410;2023-03-01T07:11:56;0.40;1.00
13711;DHT22;6927;51.256;9.410;2023-03-01T07:14:22;0.60;99.90
13711;DHT22;6927;51.256;9.410;2023-03-01T07:16:49;0.80;99.90
13711;DHT22;6927;51.256;9.410;2023-03-01T07:19:15;0.80;99.90
13711;DHT22;6927;51.256;9.410;2023-03-01T07:21:41;0.90;99.90
13711;DHT22;6927;51.256;9.410;2023-03-01T07:24:07;1.00;99.90
13711;DHT22;6927;51.256;9.410;2023-03-01T07:26:33;1.20;99.90
13711;DHT22;6927;51.256;9.410;2023-03-01T07:28:59;0.90;99.90
13711;DHT22;6927;51.256;9.410;2023-03-01T07:31:25;0.70;99.90
13711;DHT22;6927;51.256;9.410;2023-03-01T07:33:53;0.60;99.90
13711;DHT22;6927;51.256;9.410;2023-03-01T07:36:19;0.50;99.90
13711;DHT22;6927;51.256;9.410;2023-03-01T07:38:44;0.60;99.90
13711;DHT22;6927;51.256;9.410;2023-03-01T07:41:10;0.70;99.90
13711;DHT22;6927;51.256;9.410;2023-03-01T07:43:35;1.00;99.90
13711;DHT22;6927;51.256;9.410;2023-03-01T07:46:01;1.50;99.90
13711;DHT22;6927;51.256;9.410;2023-03-01T07:48:28;1.80;99.90
13711;DHT22;6927;51.256;9.410;2023-03-01T07:50:54;1.90;99.90
13711;DHT22;6927;51.256;9.410;2023-03-01T07:53:20;2.50;99.90
13711;DHT22;6927;51.256;9.410;2023-03-01T07:55:45;2.80;99.90
13711;DHT22;6927;51.256;9.410;2023-03-01T07:58:11;2.80;99.90
13711;DHT22;6927;51.256;9.410;2023-03-01T08:00:36;2.90;99.90
13711;DHT22;6927;51.256;9.410;2023-03-01T08:03:02;3.20;99.90
13711;DHT22;6927;51.256;9.410;2023-03-01T08:05:28;3.20;99.90
13711;DHT22;6927;51.256;9.410;2023-03-01T08:07:54;2.90;99.90
13711;DHT22;6927;51.256;9.410;2023-03-01T08:10:20;2.60;99.90
13711;DHT22;6927;51.256;9.410;2023-03-01T08:12:45;2.30;99.90
13711;DHT22;6927;51.256;9.410;2023-03-01T08:15:11;2.60;99.90
13711;DHT22;6927;51.256;9.410;2023-03-01T08:17:37;2.90;99.90
13711;DHT22;6927;51.256;9.410;2023-03-01T08:20:03;2.90;99.90
13711;DHT22;6927;51.256;9.410;2023-03-01T08:22:31;2.80;99.90
13711;DHT22;6927;51.256;9.410;2023-03-01T08:24:57;2.70;99.90
13711;DHT22;6927;51.256;9.410;2023-03-01T08:27:22;2.60;99.90
13711;DHT22;6927;51.256;9.410;2023-03-01T08:29:48;2.70;99.90
13711;DHT22;6927;51.256;9.410;2023-03-01T08:32:13;2.90;99.90
13711;DHT22;6927;51.256;9.410;2023-03-01T08:34:39;2.70;99.90
13711;DHT22;6927;51.256;9.410;2023-03-01T08:37:04;2.90;99.90
13711;DHT22;6927;51.256;9.410;2023-03-01T08:39:30;3.40;99.90
13711;DHT22;6927;51.256;9.410;2023-03-01T08:41:56;3.50;99.90
13711;DHT22;6927;51.256;9.410;2023-03-01T08:44:22;3.70;99.90
13711;DHT22;6927;51.256;9.410;2023-03-01T08:46:48;3.60;99.90
13711;DHT22;6927;51.256;9.410;2023-03-01T08:49:17;4.10;99.90
13711;DHT22;6927;51.256;9.410;2023-03-01T08:51:43;4.70;99.90
13711;DHT22;6927;51.256;9.410;2023-03-01T08:54:12;5.00;99.90
13711;DHT22;6927;51.256;9.410;2023-03-01T08:56:38;4.30;99.90
13711;DHT22;6927;51.256;9.410;2023-03-01T08:59:04;4.00;99.90
13711;DHT22;6927;51.256;9.410;2023-03-01T09:01:30;4.10;99.90
13711;DHT22;6927;51.256;9.410;2023-03-01T09:03:55;4.30;99.90
13711;DHT22;6927;51.256;9.410;2023-03-01T09:06:21;5.00;99.90
13711;DHT22;6927;51.256;9.410;2023-03-01T09:08:48;6.30;99.90
13711;DHT22;6927;51.256;9.410;2023-03-01T09:11:17;7.50;99.90
13711;DHT22;6927;51.256;9.410;2023-03-01T09:13:46;7.50;99.90
13711;DHT22;6927;51.256;9.410;2023-03-01T09:16:14;8.20;99.90
13711;DHT22;6927;51.256;9.410;2023-03-01T09:18:40;8.60;99.90
13711;DHT22;6927;51.256;9.410;2023-03-01T09:23:35;8.30;99.90
13711;DHT22;6927;51.256;9.410;2023-03-01T09:26:05;9.00;99.90
13711;DHT22;6927;51.256;9.410;2023-03-01T09:28:31;8.40;99.90
13711;DHT22;6927;51.256;9.410;2023-03-01T09:31:00;8.30;99.90
13711;DHT22;6927;51.256;9.410;2023-03-01T09:33:28;8.20;99.90
13711;DHT22;6927;51.256;9.410;2023-03-01T09:36:05;7.40;99.90
13711;DHT22;6927;51.256;9.410;2023-03-01T10:09:22;6.70;99.90
13711;DHT22;6927;51.256;9.410;2023-03-01T10:11:54;7.40;99.90
13711;DHT22;6927;51.256;9.410;2023-03-01T10:14:35;8.00;99.90
13711;DHT22;6927;51.256;9.410;2023-03-01T10:17:07;8.20;99.90
13711;DHT22;6927;51.256;9.410;2023-03-01T10:19:42;7.90;99.90
13711;DHT22;6927;51.256;9.410;2023-03-01T10:22:26;7.60;99.90
13711;DHT22;6927;51.256;9.410;2023-03-01T10:24:54;6.60;99.90
13711;DHT22;6927;51.256;9.410;2023-03-01T10:27:26;6.10;99.90
13711;DHT22;6927;51.256;9.410;2023-03-01T10:32:46;6.90;99.90
13711;DHT22;6927;51.256;9.410;2023-03-01T10:35:26;6.90;99.90
13711;DHT22;6927;51.256;9.410;2023-03-01T10:38:24;6.40;99.90
13711;DHT22;6927;51.256;9.410;2023-03-01T10:43:16;6.00;99.90
13711;DHT22;6927;51.256;9.410;2023-03-01T10:45:41;6.20;99.90
13711;DHT22;6927;51.256;9.410;2023-03-01T10:48:21;6.20;99.90
13711;DHT22;6927;51.256;9.410;2023-03-01T10:51:12;6.00;99.90
13711;DHT22;6927;51.256;9.410;2023-03-01T10:53:47;5.50;99.90
13711;DHT22;6927;51.256;9.410;2023-03-01T10:56:14;5.30;99.90
13711;DHT22;6927;51.256;9.410;2023-03-01T10:58:58;5.50;99.90
13711;DHT22;6927;51.256;9.410;2023-03-01T11:01:29;5.80;99.90
13711;DHT22;6927;51.256;9.410;2023-03-01T11:04:11;6.10;99.90
13711;DHT22;6927;51.256;9.410;2023-03-01T11:06:39;6.40;99.90
13711;DHT22;6927;51.256;9.410;2023-03-01T11:09:24;5.90;99.90
13711;DHT22;6927;51.256;9.410;2023-03-01T11:11:56;6.00;99.90
13711;DHT22;6927;51.256;9.410;2023-03-01T11:14:27;6.70;99.90
13711;DHT22;6927;51.256;9.410;2023-03-01T11:17:01;6.80;99.90
13711;DHT22;6927;51.256;9.410;2023-03-01T11:19:27;7.30;99.90
13711;DHT22;6927;51.256;9.410;2023-03-01T11:22:14;7.20;99.90
13711;DHT22;6927;51.256;9.410;2023-03-01T11:24:44;8.10;99.90
13711;DHT22;6927;51.256;9.410;2023-03-01T11:27:32;9.20;99.90
13711;DHT22;6927;51.256;9.410;2023-03-01T11:30:04;8.90;99.90
13711;DHT22;6927;51.256;9.410;2023-03-01T11:32:40;8.30;99.90
13711;DHT22;6927;51.256;9.410;2023-03-01T11:35:22;8.60;99.90
13711;DHT22;6927;51.256;9.410;2023-03-01T11:40:35;8.00;99.90
13711;DHT22;6927;51.256;9.410;2023-03-01T11:48:50;7.40;99.90
13711;DHT22;6927;51.256;9.410;2023-03-01T11:51:25;8.00;99.90
13711;DHT22;6927;51.256;9.410;2023-03-01T11:54:17;8.70;99.90
13711;DHT22;6927;51.256;9.410;2023-03-01T11:56:48;9.10;99.90
13711;DHT22;6927;51.256;9.410;2023-03-01T12:05:20;8.00;99.90
13711;DHT22;6927;51.256;9.410;2023-03-01T12:08:07;7.30;99.90
13711;DHT22;6927;51.256;9.410;2023-03-01T12:10:54;7.20;99.90
13711;DHT22;6927;51.256;9.410;2023-03-01T12:42:04;10.00;99.90
13711;DHT22;6927;51.256;9.410;2023-03-01T12:44:46;9.80;99.90
13711;DHT22;6927;51.256;9.410;2023-03-01T12:47:29;9.30;99.90
13711;DHT22;6927;51.256;9.410;2023-03-01T12:50:20;9.00;99.90
13711;DHT22;6927;51.256;9.410;2023-03-01T12:52:56;9.60;99.90
13711;DHT22;6927;51.256;9.410;2023-03-01T12:55:45;10.40;99.90
13711;DHT22;6927;51.256;9.410;2023-03-01T13:01:05;10.10;99.90
13711;DHT22;6927;51.256;9.410;2023-03-01T13:04:12;9.90;99.90
13711;DHT22;6927;51.256;9.410;2023-03-01T13:09:38;9.50;99.90
13711;DHT22;6927;51.256;9.410;2023-03-01T13:12:45;8.90;99.90
13711;DHT22;6927;51.256;9.410;2023-03-01T13:26:11;7.40;99.90
13711;DHT22;6927;51.256;9.410;2023-03-01T13:31:55;6.90;99.90
13711;DHT22;6927;51.256;9.410;2023-03-01T13:37:46;7.30;99.90
13711;DHT22;6927;51.256;9.410;2023-03-01T13:42:51;8.30;99.90
13711;DHT22;6927;51.256;9.410;2023-03-01T13:45:21;8.00;99.90
13711;DHT22;6927;51.256;9.410;2023-03-01T13:47:53;7.80;99.90
13711;DHT22;6927;51.256;9.410;2023-03-01T13:50:27;8.10;99.90
13711;DHT22;6927;51.256;9.410;2023-03-01T13:52:59;8.40;99.90
13711;DHT22;6927;51.256;9.410;2023-03-01T13:58:01;9.30;99.90
13711;DHT22;6927;51.256;9.410;2023-03-01T14:03:04;8.60;99.90
13711;DHT22;6927;51.256;9.410;2023-03-01T14:05:31;8.60;99.90
13711;DHT22;6927;51.256;9.410;2023-03-01T14:07:56;9.10;99.90
13711;DHT22;6927;51.256;9.410;2023-03-01T14:10:25;9.40;99.90
13711;DHT22;6927;51.256;9.410;2023-03-01T14:13:18;10.30;99.90
13711;DHT22;6927;51.256;9.410;2023-03-01T14:19:12;10.10;99.90
13711;DHT22;6927;51.256;9.410;2023-03-01T14:21:39;10.40;99.90
13711;DHT22;6927;51.256;9.410;2023-03-01T14:24:05;9.80;99.90
13711;DHT22;6927;51.256;9.410;2023-03-01T14:26:32;9.30;99.90
13711;DHT22;6927;51.256;9.410;2023-03-01T14:28:58;9.70;99.90
13711;DHT22;6927;51.256;9.410;2023-03-01T14:31:38;10.10;99.90
13711;DHT22;6927;51.256;9.410;2023-03-01T14:34:05;10.70;99.90
13711;DHT22;6927;51.256;9.410;2023-03-01T14:36:33;10.40;99.90
13711;DHT22;6927;51.256;9.410;2023-03-01T14:38:59;9.90;99.90
13711;DHT22;6927;51.256;9.410;2023-03-01T14:41:32;9.10;99.90
13711;DHT22;6927;51.256;9.410;2023-03-01T14:44:03;8.80;99.90
13711;DHT22;6927;51.256;9.410;2023-03-01T14:46:33;8.50;99.90
13711;DHT22;6927;51.256;9.410;2023-03-01T14:49:09;8.70;99.90
13711;DHT22;6927;51.256;9.410;2023-03-01T14:51:40;8.70;99.90
13711;DHT22;6927;51.256;9.410;2023-03-01T14:54:24;8.50;99.90
13711;DHT22;6927;51.256;9.410;2023-03-01T14:56:52;8.80;99.90
13711;DHT22;6927;51.256;9.410;2023-03-01T14:59:21;9.20;99.90
13711;DHT22;6927;51.256;9.410;2023-03-01T15:01:49;9.00;99.90
13711;DHT22;6927;51.256;9.410;2023-03-01T15:04:15;8.20;99.90
13711;DHT22;6927;51.256;9.410;2023-03-01T15:06:41;8.10;99.90
13711;DHT22;6927;51.256;9.410;2023-03-01T15:09:11;8.30;99.90
13711;DHT22;6927;51.256;9.410;2023-03-01T15:11:37;8.70;99.90
13711;DHT22;6927;51.256;9.410;2023-03-01T15:14:38;9.00;99.90
13711;DHT22;6927;51.256;9.410;2023-03-01T15:17:04;9.80;99.90
13711;DHT22;6927;51.256;9.410;2023-03-01T15:19:30;9.10;99.90
13711;DHT22;6927;51.256;9.410;2023-03-01T15:21:56;8.80;99.90
13711;DHT22;6927;51.256;9.410;2023-03-01T15:24:25;8.40;99.90
13711;DHT22;6927;51.256;9.410;2023-03-01T15:26:57;8.30;99.90
13711;DHT22;6927;51.256;9.410;2023-03-01T15:29:29;8.10;99.90
13711;DHT22;6927;51.256;9.410;2023-03-01T15:32:05;7.90;99.90
13711;DHT22;6927;51.256;9.410;2023-03-01T15:34:36;7.50;99.90
13711;DHT22;6927;51.256;9.410;2023-03-01T15:37:32;7.10;99.90
13711;DHT22;6927;51.256;9.410;2023-03-01T15:39:54;6.90;99.90
13711;DHT22;6927;51.256;9.410;2023-03-01T15:45:20;6.50;99.90
13711;DHT22;6927;51.256;9.410;2023-03-01T15:47:48;6.50;99.90
13711;DHT22;6927;51.256;9.410;2023-03-01T15:50:37;6.50;99.90
13711;DHT22;6927;51.256;9.410;2023-03-01T15:53:09;6.50;99.90
13711;DHT22;6927;51.256;9.410;2023-03-01T15:55:36;6.60;99.90
13711;DHT22;6927;51.256;9.410;2023-03-01T15:58:14;6.80;99.90
13711;DHT22;6927;51.256;9.410;2023-03-01T16:00:41;6.70;99.90
13711;DHT22;6927;51.256;9.410;2023-03-01T16:03:09;6.70;99.90
13711;DHT22;6927;51.256;9.410;2023-03-01T16:05:37;6.50;99.90
13711;DHT22;6927;51.256;9.410;2023-03-01T16:08:04;6.30;99.90
13711;DHT22;6927;51.256;9.410;2023-03-01T16:10:31;6.20;99.90
13711;DHT22;6927;51.256;9.410;2023-03-01T16:12:58;6.10;99.90
13711;DHT22;6927;51.256;9.410;2023-03-01T16:15:29;6.00;99.90
13711;DHT22;6927;51.256;9.410;2023-03-01T16:17:55;5.90;99.90
13711;DHT22;6927;51.256;9.410;2023-03-01T16:20:22;5.80;99.90
13711;DHT22;6927;51.256;9.410;2023-03-01T16:22:48;5.70;99.90
13711;DHT22;6927;51.256;9.410;2023-03-01T16:25:15;5.70;99.90
13711;DHT22;6927;51.256;9.410;2023-03-01T16:27:43;5.70;99.90
13711;DHT22;6927;51.256;9.410;2023-03-01T16:30:09;5.60;99.90
13711;DHT22;6927;51.256;9.410;2023-03-01T16:32:42;5.60;99.90
13711;DHT22;6927;51.256;9.410;2023-03-01T16:35:09;5.50;99.90
13711;DHT22;6927;51.256;9.410;2023-03-01T16:37:38;5.50;99.90
13711;DHT22;6927;51.256;9.410;2023-03-01T16:40:06;5.50;99.90
13711;DHT22;6927;51.256;9.410;2023-03-01T16:42:36;5.40;99.90
13711;DHT22;6927;51.256;9.410;2023-03-01T16:45:03;5.40;99.90
13711;DHT22;6927;51.256;9.410;2023-03-01T16:47:29;5.30;99.90
13711;DHT22;6927;51.256;9.410;2023-03-01T16:49:54;5.30;99.90
13711;DHT22;6927;51.256;9.410;2023-03-01T16:52:21;5.20;99.90
13711;DHT22;6927;51.256;9.410;2023-03-01T16:54:47;5.20;99.90
13711;DHT22;6927;51.256;9.410;2023-03-01T16:57:13;5.10;99.90
13711;DHT22;6927;51.256;9.410;2023-03-01T16:59:39;5.10;99.90
13711;DHT22;6927;51.256;9.410;2023-03-01T17:02:08;5.00;99.90
13711;DHT22;6927;51.256;9.410;2023-03-01T17:04:35;5.00;99.90
13711;DHT22;6927;51.256;9.410;2023-03-01T17:07:01;4.90;99.90
13711;DHT22;6927;51.256;9.410;2023-03-01T17:09:26;4.80;99.90
13711;DHT22;6927;51.256;9.410;2023-03-01T17:11:52;4.80;99.90
13711;DHT22;6927;51.256;9.410;2023-03-01T17:14:17;4.70;99.90
13711;DHT22;6927;51.256;9.410;2023-03-01T17:16:43;4.70;99.90
13711;DHT22;6927;51.256;9.410;2023-03-01T17:19:10;4.70;99.90
13711;DHT22;6927;51.256;9.410;2023-03-01T17:22:12;4.60;99.90
13711;DHT22;6927;51.256;9.410;2023-03-01T17:24:42;4.50;99.90
13711;DHT22;6927;51.256;9.410;2023-03-01T17:27:09;4.50;99.90
13711;DHT22;6927;51.256;9.410;2023-03-01T17:30:01;4.50;99.90
13711;DHT22;6927;51.256;9.410;2023-03-01T17:32:53;4.50;99.90
13711;DHT22;6927;51.256;9.410;2023-03-01T17:35:26;4.40;99.90
13711;DHT22;6927;51.256;9.410;2023-03-01T17:38:09;4.40;99.90
13711;DHT22;6927;51.256;9.410;2023-03-01T17:40:51;4.40;99.90
13711;DHT22;6927;51.256;9.410;2023-03-01T17:43:22;4.40;99.90
13711;DHT22;6927;51.256;9.410;2023-03-01T17:46:11;4.30;99.90
13711;DHT22;6927;51.256;9.410;2023-03-01T17:56:44;4.20;99.90
13711;DHT22;6927;51.256;9.410;2023-03-01T17:59:22;4.20;99.90
13711;DHT22;6927;51.256;9.410;2023-03-01T18:01:56;4.10;99.90
13711;DHT22;6927;51.256;9.410;2023-03-01T18:04:28;4.10;99.90
13711;DHT22;6927;51.256;9.410;2023-03-01T18:06:57;4.00;99.90
13711;DHT22;6927;51.256;9.410;2023-03-01T18:09:43;4.00;99.90
13711;DHT22;6927;51.256;9.410;2023-03-01T18:22:09;3.80;99.90
13711;DHT22;6927;51.256;9.410;2023-03-01T18:31:00;3.60;99.90
13711;DHT22;6927;51.256;9.410;2023-03-01T18:33:31;3.60;99.90
13711;DHT22;6927;51.256;9.410;2023-03-01T18:35:56;3.60;99.90
13711;DHT22;6927;51.256;9.410;2023-03-01T18:38:23;3.60;99.90
13711;DHT22;6927;51.256;9.410;2023-03-01T18:40:53;3.60;99.90
13711;DHT22;6927;51.256;9.410;2023-03-01T18:43:20;3.60;99.90
13711;DHT22;6927;51.256;9.410;2023-03-01T18:45:45;3.60;99.90
13711;DHT22;6927;51.256;9.410;2023-03-01T18:48:12;3.50;99.90
13711;DHT22;6927;51.256;9.410;2023-03-01T18:50:39;3.40;99.90
13711;DHT22;6927;51.256;9.410;2023-03-01T18:53:05;3.40;99.90
13711;DHT22;6927;51.256;9.410;2023-03-01T18:55:33;3.30;99.90
13711;DHT22;6927;51.256;9.410;2023-03-01T18:58:29;3.30;99.90
13711;DHT22;6927;51.256;9.410;2023-03-01T19:04:39;3.20;99.90
13711;DHT22;6927;51.256;9.410;2023-03-01T19:19:17;3.30;99.90
13711;DHT22;6927;51.256;9.410;2023-03-01T19:21:58;3.30;99.90
13711;DHT22;6927;51.256;9.410;2023-03-01T19:24:46;3.20;99.90
13711;DHT22;6927;51.256;9.410;2023-03-01T19:27:22;3.20;99.90
13711;DHT22;6927;51.256;9.410;2023-03-01T19:29:48;3.10;99.90
13711;DHT22;6927;51.256;9.410;2023-03-01T19:32:16;3.10;99.90